Time;durP1;ratioP1;P1;durP2;ratioP2;P2;SDS_P1;SDS_P2;PMS_P1;PMS_P2;Temp;Humidity;BMP_temperature;BMP_pressure;BME280_temperature;BME280_humidity;BME280_pressure;Samples;Min_cycle;Max_cycle;Signal;HPM_P1;HPM_P2
2021/08/14 00:00:32;;;;;;;4.93;3.30;;;17.20;99.90;;;;;;4994852;28;21373;-70
2021/08/14 00:02:59;;;;;;;4.23;2.70;;;17.10;99.90;;;;;;4991308;28;20462;-70
2021/08/14 00:05:26;;;;;;;13.33;3.60;;;17.10;99.90;;;;;;4981452;28;22000;-71
2021/08/14 00:07:53;;;;;;;8.53;3.47;;;17.00;99.90;;;;;;4998376;23;22055;-69
2021/08/14 00:10:20;;;;;;;6.10;3.20;;;16.90;99.90;;;;;;4996137;28;20465;-72
2021/08/14 00:12:47;;;;;;;5.60;3.87;;;17.00;99.90;;;;;;5006937;28;21153;-69
2021/08/14 00:15:14;;;;;;;4.43;2.57;;;17.00;99.90;;;;;;4994433;28;20457;-69
2021/08/14 00:17:43;;;;;;;8.03;3.43;;;17.00;99.90;;;;;;4998261;28;20623;-68
2021/08/14 00:20:11;;;;;;;4.20;3.80;;;17.00;99.90;;;;;;5001091;28;20492;-69
2021/08/14 00:22:38;;;;;;;6.53;3.20;;;17.00;99.90;;;;;;4988604;28;20459;-71
2021/08/14 00:25:06;;;;;;;4.90;3.53;;;16.90;99.90;;;;;;4996739;28;20500;-67
2021/08/14 00:27:33;;;;;;;5.00;3.77;;;17.00;99.90;;;;;;4997842;28;20500;-70
2021/08/14 00:30:00;;;;;;;11.97;3.80;;;16.90;99.90;;;;;;5002339;28;20943;-68
2021/08/14 00:32:27;;;;;;;3.83;3.10;;;16.90;99.90;;;;;;4995666;28;20550;-73
2021/08/14 00:34:55;;;;;;;3.70;2.60;;;16.90;99.90;;;;;;5003415;28;20465;-68
2021/08/14 00:37:22;;;;;;;11.07;4.10;;;16.70;99.90;;;;;;4993887;28;20453;-71
2021/08/14 00:39:50;;;;;;;4.87;3.50;;;16.50;99.90;;;;;;5000556;28;21032;-71
2021/08/14 00:42:17;;;;;;;5.30;3.30;;;16.60;99.90;;;;;;5001176;28;20985;-70
2021/08/14 00:44:44;;;;;;;4.87;3.60;;;16.70;99.90;;;;;;4997415;28;20501;-72
2021/08/14 00:47:11;;;;;;;4.40;2.80;;;16.70;99.90;;;;;;4994518;28;20486;-69
2021/08/14 00:49:38;;;;;;;4.27;2.30;;;16.80;99.90;;;;;;5003145;28;20481;-70
2021/08/14 00:52:07;;;;;;;4.47;2.60;;;16.70;99.90;;;;;;4998163;28;20457;-69
2021/08/14 00:54:34;;;;;;;8.70;3.07;;;16.70;99.90;;;;;;5001536;28;20493;-73
2021/08/14 00:57:01;;;;;;;7.90;3.40;;;16.70;99.90;;;;;;4997893;28;20475;-75
2021/08/14 00:59:29;;;;;;;5.90;3.77;;;16.70;99.90;;;;;;5002099;28;20902;-70
2021/08/14 01:01:56;;;;;;;4.33;3.43;;;16.50;99.90;;;;;;5003732;28;20673;-69
2021/08/14 01:04:23;;;;;;;15.30;4.20;;;16.50;99.90;;;;;;4994793;28;20938;-70
2021/08/14 01:06:51;;;;;;;12.17;3.17;;;16.40;99.90;;;;;;4995891;28;20461;-68
2021/08/14 01:09:19;;;;;;;6.97;3.67;;;16.40;99.90;;;;;;4996079;28;20489;-71
2021/08/14 01:11:46;;;;;;;5.17;3.20;;;16.30;99.90;;;;;;4995639;28;20536;-68
2021/08/14 01:14:14;;;;;;;8.83;4.20;;;16.30;99.90;;;;;;5000019;28;20492;-70
2021/08/14 01:16:41;;;;;;;10.33;5.23;;;16.30;99.90;;;;;;4994429;28;20480;-71
2021/08/14 01:19:08;;;;;;;5.90;3.27;;;16.30;99.90;;;;;;4995265;28;20469;-70
2021/08/14 01:21:36;;;;;;;2.60;2.27;;;16.30;99.90;;;;;;5001428;28;20886;-70
2021/08/14 01:24:04;;;;;;;10.40;4.47;;;16.30;99.90;;;;;;4993741;28;20557;-74
2021/08/14 01:26:33;;;;;;;6.20;4.23;;;16.30;99.90;;;;;;4995867;28;20545;-70
2021/08/14 01:29:01;;;;;;;3.77;2.73;;;16.30;99.90;;;;;;4987637;28;20492;-70
2021/08/14 01:31:28;;;;;;;4.23;3.20;;;16.20;99.90;;;;;;4989693;28;20462;-68
2021/08/14 01:33:57;;;;;;;4.80;2.90;;;16.20;99.90;;;;;;4993802;28;20553;-67
2021/08/14 01:36:24;;;;;;;6.57;3.17;;;16.10;99.90;;;;;;5005290;28;20476;-68
2021/08/14 01:38:53;;;;;;;4.80;2.83;;;16.00;99.90;;;;;;4992145;28;20558;-69
2021/08/14 01:41:21;;;;;;;5.57;3.40;;;16.10;99.90;;;;;;5003580;28;20547;-69
2021/08/14 01:43:53;;;;;;;5.23;3.30;;;16.10;99.90;;;;;;4987171;28;20481;-75
2021/08/14 01:46:22;;;;;;;6.47;2.97;;;16.10;99.90;;;;;;4999731;28;20552;-72
2021/08/14 01:48:49;;;;;;;4.23;2.90;;;16.10;99.90;;;;;;4995825;28;20533;-69
2021/08/14 01:51:16;;;;;;;4.90;3.53;;;16.10;99.90;;;;;;5000973;28;21175;-69
2021/08/14 01:53:47;;;;;;;6.13;3.20;;;16.10;99.90;;;;;;4997683;28;20563;-70
2021/08/14 01:56:14;;;;;;;7.30;3.20;;;15.90;99.90;;;;;;4997894;28;20449;-71
2021/08/14 01:58:41;;;;;;;6.33;3.67;;;15.70;99.90;;;;;;4999860;28;20481;-69
2021/08/14 02:01:08;;;;;;;5.10;3.40;;;15.60;99.90;;;;;;5000748;28;20478;-70
2021/08/14 02:03:36;;;;;;;7.07;2.90;;;15.40;99.90;;;;;;4997148;28;20534;-73
2021/08/14 02:06:06;;;;;;;6.93;2.83;;;15.50;99.90;;;;;;5004221;28;21085;-72
2021/08/14 02:08:33;;;;;;;3.83;2.37;;;15.70;99.90;;;;;;5001972;28;20481;-69
2021/08/14 02:11:00;;;;;;;5.33;2.80;;;15.70;99.90;;;;;;4995497;28;20430;-70
2021/08/14 02:13:28;;;;;;;5.90;3.40;;;15.80;99.90;;;;;;4996683;28;20536;-71
2021/08/14 02:15:55;;;;;;;5.03;3.37;;;15.90;99.90;;;;;;4994037;28;20544;-70
2021/08/14 02:18:22;;;;;;;4.03;3.00;;;16.00;99.90;;;;;;4995025;28;20477;-70
2021/08/14 02:20:50;;;;;;;6.97;4.17;;;16.00;99.90;;;;;;4996819;28;20489;-70
2021/08/14 02:23:17;;;;;;;6.13;3.33;;;16.00;99.90;;;;;;5001910;28;20531;-70
2021/08/14 02:25:44;;;;;;;5.03;3.07;;;16.00;99.90;;;;;;4998798;28;20469;-71
2021/08/14 02:28:11;;;;;;;4.90;3.13;;;16.00;99.90;;;;;;5014551;28;20555;-70
2021/08/14 02:30:38;;;;;;;4.27;3.10;;;16.00;99.90;;;;;;4999564;28;21094;-70
2021/08/14 02:33:05;;;;;;;8.37;3.63;;;15.90;99.90;;;;;;5000498;28;20576;-69
2021/08/14 02:35:32;;;;;;;3.50;2.80;;;15.80;99.90;;;;;;4998803;28;20966;-70
2021/08/14 02:38:00;;;;;;;9.13;3.67;;;15.80;99.90;;;;;;4995657;28;20488;-69
2021/08/14 02:40:27;;;;;;;6.63;3.13;;;15.80;99.90;;;;;;5006001;28;20449;-74
2021/08/14 02:42:54;;;;;;;6.10;2.90;;;15.80;99.90;;;;;;4997381;28;20445;-69
2021/08/14 02:45:21;;;;;;;2.70;2.43;;;15.70;99.90;;;;;;4995330;28;20531;-71
2021/08/14 02:47:48;;;;;;;3.10;2.70;;;15.60;99.90;;;;;;4996795;28;20560;-71
2021/08/14 02:50:15;;;;;;;5.40;3.10;;;15.60;99.90;;;;;;4993995;28;20473;-73
2021/08/14 02:52:42;;;;;;;4.67;3.33;;;15.70;99.90;;;;;;4996800;28;20449;-76
2021/08/14 02:55:11;;;;;;;5.03;3.10;;;15.70;99.90;;;;;;4993427;28;20560;-69
2021/08/14 02:57:38;;;;;;;3.70;2.70;;;15.70;99.90;;;;;;4996840;28;20498;-72
2021/08/14 03:00:05;;;;;;;4.80;3.10;;;15.70;99.90;;;;;;5002786;28;20853;-70
2021/08/14 03:02:33;;;;;;;6.77;3.63;;;15.60;99.90;;;;;;4994866;28;20549;-70
2021/08/14 03:05:00;;;;;;;6.50;2.70;;;15.60;99.90;;;;;;4991614;28;20456;-73
2021/08/14 03:07:27;;;;;;;7.77;2.83;;;15.60;99.90;;;;;;4996847;28;20553;-71
2021/08/14 03:09:54;;;;;;;3.40;2.70;;;15.50;99.90;;;;;;4999977;28;20513;-72
2021/08/14 03:12:22;;;;;;;2.87;2.57;;;15.50;99.90;;;;;;4989154;28;20954;-69
2021/08/14 03:14:49;;;;;;;6.03;2.97;;;15.50;99.90;;;;;;4996905;28;20507;-74
2021/08/14 03:17:16;;;;;;;5.50;2.60;;;15.40;99.90;;;;;;4999905;28;20480;-69
2021/08/14 03:19:43;;;;;;;7.17;3.73;;;15.40;99.90;;;;;;4989026;28;20496;-70
2021/08/14 03:22:10;;;;;;;7.07;3.00;;;15.40;99.90;;;;;;5000458;28;20546;-68
2021/08/14 03:24:37;;;;;;;4.40;2.90;;;15.40;99.90;;;;;;4996356;28;20458;-71
2021/08/14 03:27:05;;;;;;;4.83;3.30;;;15.40;99.90;;;;;;4996733;28;20474;-68
2021/08/14 03:29:34;;;;;;;6.50;3.10;;;15.40;99.90;;;;;;5007498;28;20555;-71
2021/08/14 03:32:01;;;;;;;3.07;2.13;;;15.40;99.90;;;;;;5002062;28;20547;-71
2021/08/14 03:34:28;;;;;;;8.70;3.60;;;15.40;99.90;;;;;;5001710;28;20480;-68
2021/08/14 03:36:55;;;;;;;6.03;3.07;;;15.30;99.90;;;;;;5001983;28;20540;-73
2021/08/14 03:39:23;;;;;;;4.90;3.40;;;15.30;99.90;;;;;;4998454;28;20552;-69
2021/08/14 03:41:50;;;;;;;11.23;4.07;;;15.30;99.90;;;;;;4996634;28;20481;-70
2021/08/14 03:44:16;;;;;;;4.73;3.20;;;15.30;99.90;;;;;;5004765;28;20507;-69
2021/08/14 03:46:45;;;;;;;5.83;3.17;;;15.30;99.90;;;;;;5000684;28;20516;-68
2021/08/14 03:49:12;;;;;;;4.43;2.90;;;15.30;99.90;;;;;;4992936;28;20510;-72
2021/08/14 03:51:39;;;;;;;5.73;2.87;;;15.30;99.90;;;;;;5002705;28;20543;-69
2021/08/14 03:54:06;;;;;;;5.37;2.90;;;15.30;99.90;;;;;;5001264;28;20561;-72
2021/08/14 03:56:33;;;;;;;6.63;3.20;;;15.30;99.90;;;;;;4992013;28;20517;-70
2021/08/14 03:59:00;;;;;;;5.53;3.13;;;15.30;99.90;;;;;;4993424;28;20567;-68
2021/08/14 04:01:27;;;;;;;4.90;2.90;;;15.30;99.90;;;;;;4999341;28;20484;-71
2021/08/14 04:03:55;;;;;;;7.03;3.63;;;15.30;99.90;;;;;;4992610;28;20468;-69
2021/08/14 04:06:22;;;;;;;6.50;3.50;;;15.20;99.90;;;;;;4998293;28;20484;-71
2021/08/14 04:08:49;;;;;;;4.90;2.90;;;15.20;99.90;;;;;;4992156;28;20477;-69
2021/08/14 04:11:16;;;;;;;6.90;3.50;;;15.10;99.90;;;;;;4998974;28;21105;-69
2021/08/14 04:13:43;;;;;;;3.37;2.60;;;15.10;99.90;;;;;;4997905;28;20577;-68
2021/08/14 04:16:09;;;;;;;7.23;3.90;;;15.10;99.90;;;;;;4993149;28;20497;-69
2021/08/14 04:18:36;;;;;;;4.27;2.93;;;15.10;99.90;;;;;;4990635;28;21698;-69
2021/08/14 04:21:06;;;;;;;8.13;3.87;;;15.00;99.90;;;;;;5005067;28;20514;-73
2021/08/14 04:23:34;;;;;;;4.27;2.53;;;15.00;99.90;;;;;;4994108;28;20420;-71
2021/08/14 04:26:01;;;;;;;4.20;3.30;;;15.00;99.90;;;;;;4990687;28;20462;-74
2021/08/14 04:28:28;;;;;;;4.50;3.10;;;15.00;99.90;;;;;;4993172;28;20556;-70
2021/08/14 04:30:55;;;;;;;8.53;3.90;;;15.00;99.90;;;;;;5005803;28;20485;-69
2021/08/14 04:33:22;;;;;;;4.13;2.60;;;15.00;99.90;;;;;;5000068;28;20460;-75
2021/08/14 04:35:49;;;;;;;3.00;2.47;;;15.00;99.90;;;;;;4994910;28;20978;-69
2021/08/14 04:38:17;;;;;;;4.77;2.63;;;15.00;99.90;;;;;;4998079;28;20495;-74
2021/08/14 04:40:45;;;;;;;3.70;3.03;;;15.00;99.90;;;;;;4996240;28;20474;-72
2021/08/14 04:43:12;;;;;;;9.57;3.53;;;15.10;99.90;;;;;;5001568;28;20461;-74
2021/08/14 04:45:39;;;;;;;5.17;3.23;;;15.10;99.90;;;;;;5000040;28;20542;-69
2021/08/14 04:48:06;;;;;;;6.93;4.10;;;15.20;99.90;;;;;;5003914;28;20497;-71
2021/08/14 04:50:33;;;;;;;7.20;3.67;;;15.10;99.90;;;;;;4994542;28;20564;-69
2021/08/14 04:53:00;;;;;;;4.83;3.20;;;15.10;99.90;;;;;;5000690;28;20992;-72
2021/08/14 04:55:29;;;;;;;5.73;4.17;;;15.10;99.90;;;;;;4989527;28;20581;-70
2021/08/14 04:57:56;;;;;;;4.63;4.03;;;15.10;99.90;;;;;;4997292;28;20469;-70
2021/08/14 05:00:23;;;;;;;5.07;3.60;;;15.10;99.90;;;;;;5001179;28;20992;-70
2021/08/14 05:02:50;;;;;;;4.73;3.80;;;15.10;99.90;;;;;;4998746;28;20485;-69
2021/08/14 05:05:17;;;;;;;6.87;3.53;;;15.10;99.90;;;;;;5007028;28;21545;-69
2021/08/14 05:07:44;;;;;;;13.93;3.27;;;15.10;99.90;;;;;;4999604;28;20481;-69
2021/08/14 05:10:14;;;;;;;4.43;3.20;;;15.20;99.90;;;;;;4996951;28;20560;-69
2021/08/14 05:12:43;;;;;;;3.90;3.50;;;15.40;99.90;;;;;;5002542;28;20449;-68
2021/08/14 05:15:10;;;;;;;4.40;3.20;;;15.50;99.90;;;;;;4991835;28;20537;-69
2021/08/14 05:17:37;;;;;;;7.60;3.20;;;15.70;99.90;;;;;;5000186;28;20713;-68
2021/08/14 05:20:06;;;;;;;5.73;2.77;;;16.10;99.90;;;;;;4996058;28;20540;-70
2021/08/14 05:22:33;;;;;;;5.53;3.07;;;16.40;99.90;;;;;;4995201;28;20551;-71
2021/08/14 05:25:00;;;;;;;4.97;2.90;;;16.80;99.90;;;;;;4989384;28;20593;-69
2021/08/14 05:27:27;;;;;;;2.83;2.43;;;17.10;99.90;;;;;;4998745;28;20544;-71
2021/08/14 05:29:55;;;;;;;4.87;3.13;;;17.30;99.90;;;;;;4995675;28;20454;-69
2021/08/14 05:32:22;;;;;;;7.50;4.80;;;17.40;99.90;;;;;;4999377;28;20504;-73
2021/08/14 05:34:49;;;;;;;9.67;4.50;;;17.70;99.90;;;;;;5000354;28;20473;-70
2021/08/14 05:37:16;;;;;;;8.07;4.13;;;18.10;99.90;;;;;;5001294;28;20488;-75
2021/08/14 05:39:43;;;;;;;6.30;3.77;;;18.50;99.90;;;;;;5007636;28;20512;-70
2021/08/14 05:42:10;;;;;;;5.77;3.77;;;18.90;99.90;;;;;;5003489;28;20488;-70
2021/08/14 05:44:37;;;;;;;6.57;4.07;;;19.20;99.90;;;;;;5004484;28;20626;-71
2021/08/14 05:47:06;;;;;;;9.90;4.70;;;19.50;99.90;;;;;;5007212;28;20546;-69
2021/08/14 05:49:32;;;;;;;5.73;4.20;;;19.90;99.90;;;;;;5009659;28;20596;-69
2021/08/14 05:52:00;;;;;;;6.97;4.83;;;20.10;99.90;;;;;;5001578;28;20638;-70
2021/08/14 05:54:28;;;;;;;8.60;4.83;;;20.30;99.90;;;;;;4994347;28;20469;-71
2021/08/14 05:56:54;;;;;;;8.00;5.00;;;20.60;99.90;;;;;;4994994;28;20495;-70
2021/08/14 05:59:21;;;;;;;12.23;6.93;;;20.90;99.90;;;;;;5002340;28;20552;-73
2021/08/14 06:01:48;;;;;;;10.40;7.40;;;21.20;99.90;;;;;;5002825;28;20492;-69
2021/08/14 06:04:16;;;;;;;9.47;4.83;;;21.50;99.90;;;;;;5000640;28;20458;-68
2021/08/14 06:06:44;;;;;;;10.70;5.43;;;21.70;99.90;;;;;;4993898;28;20553;-68
2021/08/14 06:09:11;;;;;;;9.10;5.67;;;21.90;99.90;;;;;;4997330;28;21016;-68
2021/08/14 06:11:39;;;;;;;8.80;5.50;;;22.00;99.90;;;;;;4998694;28;20561;-73
2021/08/14 06:14:06;;;;;;;15.83;7.47;;;22.20;99.90;;;;;;4997262;28;20553;-68
2021/08/14 06:16:33;;;;;;;8.67;6.13;;;22.30;99.90;;;;;;4991591;28;21019;-69
2021/08/14 06:19:00;;;;;;;16.93;6.40;;;22.30;99.90;;;;;;4993442;28;20553;-70
2021/08/14 06:21:28;;;;;;;9.27;5.70;;;22.50;99.90;;;;;;4996751;28;20816;-69
2021/08/14 06:23:55;;;;;;;10.83;5.00;;;22.80;99.90;;;;;;5000796;28;20551;-69
2021/08/14 06:26:22;;;;;;;11.30;5.80;;;22.70;99.90;;;;;;4992346;28;20663;-69
2021/08/14 06:28:49;;;;;;;8.53;6.00;;;22.90;99.90;;;;;;5000527;28;20571;-70
2021/08/14 06:31:17;;;;;;;12.23;6.13;;;22.90;99.90;;;;;;4990594;28;20476;-69
2021/08/14 06:33:44;;;;;;;7.60;5.00;;;23.20;99.90;;;;;;4983580;28;20453;-70
2021/08/14 06:36:11;;;;;;;8.33;6.13;;;23.30;99.90;;;;;;4991978;28;20937;-71
2021/08/14 06:38:40;;;;;;;11.17;5.43;;;23.40;99.90;;;;;;4985401;28;20489;-68
2021/08/14 06:41:07;;;;;;;12.43;6.57;;;23.70;99.90;;;;;;4993059;28;20525;-68
2021/08/14 06:43:34;;;;;;;13.60;5.87;;;24.00;99.90;;;;;;4997984;28;20501;-75
2021/08/14 06:46:01;;;;;;;11.30;5.80;;;24.20;99.90;;;;;;4987957;28;20545;-72
2021/08/14 06:48:27;;;;;;;13.57;6.50;;;24.50;99.90;;;;;;4990487;28;20889;-71
2021/08/14 06:50:54;;;;;;;10.33;7.20;;;24.30;99.90;;;;;;4995630;28;20473;-71
2021/08/14 06:53:21;;;;;;;8.93;6.43;;;24.30;99.90;;;;;;4991070;28;20501;-73
2021/08/14 06:55:50;;;;;;;11.93;6.50;;;24.50;99.90;;;;;;4995173;28;20493;-70
2021/08/14 06:58:17;;;;;;;8.50;5.50;;;24.40;99.90;;;;;;4999240;28;20516;-70
2021/08/14 07:00:43;;;;;;;7.53;5.90;;;24.40;99.90;;;;;;5009287;28;20950;-68
2021/08/14 07:03:10;;;;;;;11.03;4.07;;;24.20;99.90;;;;;;5002641;28;20549;-72
2021/08/14 07:05:39;;;;;;;6.60;4.53;;;24.30;99.90;;;;;;4997575;28;20471;-69
2021/08/14 07:08:07;;;;;;;6.23;4.73;;;24.40;99.90;;;;;;4997912;28;20496;-70
2021/08/14 07:10:34;;;;;;;8.93;5.03;;;24.80;99.90;;;;;;4992622;28;20623;-69
2021/08/14 07:13:03;;;;;;;13.00;5.73;;;24.80;99.90;;;;;;4986113;28;20489;-68
2021/08/14 07:15:30;;;;;;;14.53;5.60;;;25.20;99.90;;;;;;4992145;28;20457;-70
2021/08/14 07:17:57;;;;;;;10.80;5.07;;;25.60;99.90;;;;;;4984911;28;20482;-71
2021/08/14 07:20:25;;;;;;;8.83;5.90;;;25.70;99.90;;;;;;4994403;28;20490;-70
2021/08/14 07:22:51;;;;;;;12.00;3.93;;;25.70;99.90;;;;;;5000727;28;20549;-72
2021/08/14 07:25:18;;;;;;;9.63;5.07;;;26.40;99.90;;;;;;4989022;28;20552;-68
2021/08/14 07:27:45;;;;;;;7.40;4.27;;;26.50;99.90;;;;;;4991036;28;20572;-71
2021/08/14 07:30:14;;;;;;;8.47;4.77;;;26.90;99.90;;;;;;4997357;28;21827;-70
2021/08/14 07:32:42;;;;;;;5.47;3.73;;;27.10;99.90;;;;;;4996546;28;20612;-70
2021/08/14 07:35:10;;;;;;;7.70;3.40;;;27.10;99.90;;;;;;4984173;28;23902;-69
2021/08/14 07:37:45;;;;;;;10.53;5.17;;;27.00;99.90;;;;;;4986481;28;20879;-68
2021/08/14 07:40:15;;;;;;;6.87;3.67;;;27.30;99.90;;;;;;4997230;28;20464;-70
2021/08/14 07:42:42;;;;;;;7.13;3.47;;;26.80;99.90;;;;;;4988540;28;20947;-69
2021/08/14 07:45:15;;;;;;;6.20;4.10;;;26.90;99.90;;;;;;4995916;28;20830;-70
2021/08/14 07:47:45;;;;;;;9.63;3.97;;;27.10;99.90;;;;;;4994246;28;20532;-70
2021/08/14 07:50:14;;;;;;;6.57;4.00;;;27.20;99.90;;;;;;4990070;28;20739;-72
2021/08/14 07:52:41;;;;;;;8.00;3.73;;;27.60;99.90;;;;;;4988669;28;20568;-69
2021/08/14 07:55:09;;;;;;;6.47;3.60;;;27.50;99.90;;;;;;4987255;28;20470;-70
2021/08/14 07:57:39;;;;;;;6.40;3.73;;;27.80;99.90;;;;;;4993190;28;20842;-67
2021/08/14 08:00:07;;;;;;;7.20;4.17;;;27.70;99.90;;;;;;4988261;28;20458;-75
2021/08/14 08:02:39;;;;;;;6.80;2.53;;;27.70;99.90;;;;;;4974121;28;20459;-69
2021/08/14 08:05:12;;;;;;;7.77;3.07;;;28.00;99.90;;;;;;4991258;28;20450;-69
2021/08/14 08:07:43;;;;;;;4.80;2.50;;;27.80;99.90;;;;;;4991793;28;20466;-70
2021/08/14 08:10:11;;;;;;;5.53;3.37;;;27.80;99.90;;;;;;4989363;28;20446;-71
2021/08/14 08:12:38;;;;;;;4.43;2.67;;;28.00;99.90;;;;;;4989841;28;20521;-68
2021/08/14 08:15:06;;;;;;;4.97;2.67;;;27.90;99.90;;;;;;4987595;28;20497;-69
2021/08/14 08:17:33;;;;;;;4.37;2.57;;;28.20;99.90;;;;;;4988027;28;20540;-71
2021/08/14 08:20:01;;;;;;;4.37;2.83;;;28.70;99.90;;;;;;4993799;28;20533;-70
2021/08/14 08:22:29;;;;;;;5.63;2.73;;;28.80;99.90;;;;;;4991673;28;20454;-68
2021/08/14 08:24:57;;;;;;;3.63;2.80;;;28.70;99.90;;;;;;4990478;28;20457;-69
2021/08/14 08:27:24;;;;;;;5.20;2.47;;;28.40;99.90;;;;;;4989420;28;20568;-71
2021/08/14 08:29:51;;;;;;;2.77;2.30;;;28.80;99.90;;;;;;4990216;28;20470;-70
2021/08/14 08:32:18;;;;;;;9.27;3.07;;;28.70;99.90;;;;;;4990790;28;20485;-70
2021/08/14 08:34:45;;;;;;;5.60;3.37;;;29.20;99.80;;;;;;4993836;28;20480;-70
2021/08/14 08:37:13;;;;;;;12.23;3.50;;;29.40;99.20;;;;;;4997128;28;20489;-71
2021/08/14 08:39:41;;;;;;;10.37;2.73;;;30.10;98.70;;;;;;4989250;28;20489;-70
2021/08/14 08:42:09;;;;;;;4.20;2.80;;;30.70;98.00;;;;;;4998741;28;20997;-70
2021/08/14 08:44:36;;;;;;;6.27;2.40;;;30.90;93.90;;;;;;4990679;28;20539;-72
2021/08/14 08:47:07;;;;;;;3.70;2.37;;;30.10;94.40;;;;;;5000198;28;20485;-70
2021/08/14 08:49:34;;;;;;;8.47;2.77;;;30.30;93.30;;;;;;4995548;28;20565;-72
2021/08/14 08:52:02;;;;;;;7.17;3.47;;;29.80;94.10;;;;;;4992270;28;20830;-71
2021/08/14 08:54:28;;;;;;;10.33;3.10;;;30.40;93.40;;;;;;4994786;28;20732;-69
2021/08/14 08:56:57;;;;;;;6.40;2.70;;;30.80;92.40;;;;;;4994941;28;20493;-74
2021/08/14 08:59:24;;;;;;;8.80;2.83;;;31.30;93.10;;;;;;4989430;28;20478;-71
2021/08/14 09:01:50;;;;;;;7.60;3.00;;;31.40;91.80;;;;;;4990234;28;20461;-71
2021/08/14 09:04:22;;;;;;;4.33;2.77;;;31.20;91.80;;;;;;4988600;28;21675;-71
2021/08/14 09:06:49;;;;;;;4.03;2.40;;;31.00;92.10;;;;;;4988274;28;20560;-71
2021/08/14 09:09:17;;;;;;;4.90;3.00;;;31.10;90.70;;;;;;4998558;28;20489;-70
2021/08/14 09:11:50;;;;;;;7.87;3.93;;;31.30;86.80;;;;;;4992524;28;20571;-73
2021/08/14 09:14:18;;;;;;;7.00;2.20;;;30.70;84.90;;;;;;4990755;28;20541;-71
2021/08/14 09:16:46;;;;;;;8.60;2.93;;;31.00;82.80;;;;;;4987013;28;20509;-70
2021/08/14 09:19:24;;;;;;;5.47;1.90;;;30.90;85.50;;;;;;4999089;28;20477;-73
2021/08/14 09:21:51;;;;;;;4.87;2.13;;;31.70;84.00;;;;;;5000427;28;22007;-69
2021/08/14 09:24:32;;;;;;;3.80;2.30;;;31.90;81.30;;;;;;4986874;28;20552;-72
2021/08/14 09:27:02;;;;;;;5.77;2.70;;;32.40;80.20;;;;;;4989853;28;20446;-71
2021/08/14 09:29:32;;;;;;;8.40;3.23;;;32.90;78.50;;;;;;4988995;28;25185;-70
2021/08/14 09:32:00;;;;;;;10.90;3.03;;;32.80;76.10;;;;;;4993695;28;20571;-70
2021/08/14 09:34:28;;;;;;;3.60;2.20;;;33.10;77.90;;;;;;4996557;28;20902;-69
2021/08/14 09:37:02;;;;;;;3.07;2.03;;;33.50;73.50;;;;;;4985688;28;20901;-72
2021/08/14 09:39:30;;;;;;;4.07;2.13;;;33.20;70.30;;;;;;5001744;28;21009;-71
2021/08/14 09:42:04;;;;;;;4.50;3.43;;;32.60;69.40;;;;;;4996337;28;20449;-70
2021/08/14 09:44:33;;;;;;;5.00;3.00;;;32.70;71.10;;;;;;4991529;28;20487;-71
2021/08/14 09:47:01;;;;;;;3.30;2.27;;;33.20;65.80;;;;;;4988467;28;20478;-70
2021/08/14 09:49:48;;;;;;;3.30;1.77;;;33.20;62.60;;;;;;4993942;28;20493;-70
2021/08/14 09:52:20;;;;;;;5.57;2.00;;;33.20;62.30;;;;;;4997365;28;20846;-69
2021/08/14 09:54:46;;;;;;;4.53;1.90;;;32.70;60.40;;;;;;4993413;28;20513;-70
2021/08/14 09:57:14;;;;;;;4.97;2.03;;;32.60;60.40;;;;;;4991010;28;21025;-73
2021/08/14 09:59:45;;;;;;;3.63;2.40;;;32.50;59.30;;;;;;4992894;28;20477;-69
2021/08/14 10:02:17;;;;;;;5.53;2.17;;;32.80;60.40;;;;;;4999189;28;20472;-71
2021/08/14 10:04:46;;;;;;;4.70;2.10;;;32.80;60.60;;;;;;4993541;28;20469;-70
2021/08/14 10:07:15;;;;;;;6.20;2.30;;;33.50;58.80;;;;;;4991175;28;20461;-70
2021/08/14 10:09:42;;;;;;;4.63;2.10;;;33.70;59.10;;;;;;4993626;28;20542;-70
2021/08/14 10:12:11;;;;;;;7.77;2.00;;;33.80;58.00;;;;;;4989966;28;20656;-70
2021/08/14 10:14:39;;;;;;;3.70;2.20;;;33.20;56.20;;;;;;4993472;28;20830;-70
2021/08/14 10:17:08;;;;;;;3.40;2.40;;;33.30;59.30;;;;;;4993272;28;26132;-72
2021/08/14 10:19:35;;;;;;;4.63;2.00;;;33.70;56.40;;;;;;4987313;28;20570;-73
2021/08/14 10:22:03;;;;;;;6.77;3.23;;;33.40;56.20;;;;;;4992005;28;20498;-69
2021/08/14 10:24:36;;;;;;;6.60;1.93;;;33.60;56.30;;;;;;5003018;28;20987;-70
2021/08/14 10:27:05;;;;;;;3.73;1.90;;;34.20;55.10;;;;;;4993117;28;20568;-70
2021/08/14 10:29:49;;;;;;;2.93;2.23;;;34.10;55.00;;;;;;4989907;28;20474;-71
2021/08/14 10:32:51;;;;;;;7.70;2.73;;;33.60;54.30;;;;;;4996078;28;20593;-70
2021/08/14 10:35:37;;;;;;;4.90;2.20;;;33.80;54.50;;;;;;4943062;29;20455;-70
2021/08/14 10:38:07;;;;;;;5.60;2.13;;;33.90;54.60;;;;;;4929445;28;20837;-70
2021/08/14 10:41:01;;;;;;;3.10;2.40;;;33.70;54.70;;;;;;4974434;28;20448;-71
2021/08/14 10:43:59;;;;;;;3.20;2.00;;;33.80;53.40;;;;;;4989986;28;20950;-72
2021/08/14 10:46:43;;;;;;;4.17;2.20;;;34.00;53.40;;;;;;4987717;28;20465;-70
2021/08/14 10:49:19;;;;;;;3.10;2.23;;;33.40;52.40;;;;;;5003037;28;20477;-70
2021/08/14 10:52:09;;;;;;;3.77;1.77;;;33.30;52.90;;;;;;4997845;28;20469;-71
2021/08/14 10:55:02;;;;;;;4.73;1.93;;;33.80;51.60;;;;;;4995763;28;20461;-70
2021/08/14 10:57:51;;;;;;;3.50;2.20;;;33.80;53.20;;;;;;4997825;28;20465;-70
2021/08/14 11:00:26;;;;;;;4.93;1.70;;;34.20;53.10;;;;;;4983792;28;20485;-72
2021/08/14 11:03:11;;;;;;;3.13;2.00;;;34.30;50.70;;;;;;4995940;28;20606;-73
2021/08/14 11:05:43;;;;;;;3.63;2.17;;;33.40;51.10;;;;;;4999289;28;20469;-70
2021/08/14 11:08:27;;;;;;;2.50;1.80;;;33.10;52.80;;;;;;4990241;28;20497;-70
2021/08/14 11:10:55;;;;;;;3.33;1.73;;;33.80;53.60;;;;;;4994688;28;20540;-69
2021/08/14 11:13:41;;;;;;;4.70;2.47;;;33.80;52.70;;;;;;4984020;28;20499;-73
2021/08/14 11:16:08;;;;;;;3.10;1.93;;;33.80;52.40;;;;;;4991906;28;20876;-73
2021/08/14 11:18:54;;;;;;;3.13;1.83;;;34.40;52.40;;;;;;4983394;28;20580;-71
2021/08/14 11:21:44;;;;;;;3.20;2.20;;;34.70;52.50;;;;;;5012270;28;20543;-74
2021/08/14 11:24:32;;;;;;;6.10;2.03;;;35.10;49.60;;;;;;5005291;28;20540;-70
2021/08/14 11:26:59;;;;;;;4.13;2.27;;;34.90;49.80;;;;;;4999016;28;20804;-71
2021/08/14 11:29:28;;;;;;;4.27;1.83;;;34.40;51.10;;;;;;5001283;28;20565;-78
2021/08/14 11:31:57;;;;;;;3.20;2.43;;;34.90;50.90;;;;;;4996673;28;20477;-71
2021/08/14 11:34:25;;;;;;;2.30;2.00;;;34.80;49.60;;;;;;4997286;28;20465;-72
2021/08/14 11:37:00;;;;;;;3.40;2.40;;;34.60;51.60;;;;;;5003397;28;20552;-71
2021/08/14 11:39:31;;;;;;;3.53;2.20;;;35.10;50.10;;;;;;5007929;28;20549;-71
2021/08/14 11:41:58;;;;;;;3.37;1.60;;;34.90;49.90;;;;;;4997698;28;20438;-70
2021/08/14 11:44:25;;;;;;;4.03;2.20;;;35.20;49.10;;;;;;4996247;28;20540;-70
2021/08/14 11:47:01;;;;;;;5.43;3.10;;;34.40;49.60;;;;;;5007345;28;20543;-73
2021/08/14 11:49:28;;;;;;;3.47;1.97;;;34.40;50.70;;;;;;4999397;28;20493;-71
2021/08/14 11:52:03;;;;;;;8.53;3.07;;;33.90;49.90;;;;;;5009245;28;20461;-71
2021/08/14 11:54:32;;;;;;;8.43;2.60;;;33.80;50.80;;;;;;5000614;28;20494;-71
2021/08/14 11:57:09;;;;;;;4.67;2.50;;;34.20;51.20;;;;;;4998643;28;20975;-74
2021/08/14 11:59:36;;;;;;;4.27;2.10;;;34.50;51.00;;;;;;5003082;28;20468;-69
2021/08/14 12:02:03;;;;;;;3.87;2.67;;;35.20;51.90;;;;;;4993148;28;20540;-71
2021/08/14 12:04:30;;;;;;;3.20;2.40;;;36.10;50.80;;;;;;5003413;28;20535;-73
2021/08/14 12:06:58;;;;;;;2.53;2.20;;;36.30;50.10;;;;;;5004407;28;20545;-74
2021/08/14 12:09:26;;;;;;;5.83;2.57;;;36.00;48.50;;;;;;4996852;28;20788;-71
2021/08/14 12:11:54;;;;;;;6.60;2.50;;;35.00;48.90;;;;;;5005301;28;20481;-72
2021/08/14 12:14:24;;;;;;;5.90;2.70;;;34.10;49.60;;;;;;5003748;28;20553;-71
2021/08/14 12:16:53;;;;;;;4.67;2.70;;;33.80;50.90;;;;;;4991484;28;20461;-71
2021/08/14 12:19:21;;;;;;;5.37;2.70;;;34.60;49.50;;;;;;4995260;28;20568;-74
2021/08/14 12:21:50;;;;;;;5.17;2.93;;;35.00;50.80;;;;;;5007588;28;20541;-71
2021/08/14 12:24:17;;;;;;;3.93;2.43;;;35.30;50.60;;;;;;4991341;28;20989;-75
2021/08/14 12:26:45;;;;;;;3.13;2.30;;;35.20;51.20;;;;;;4994236;28;20540;-70
2021/08/14 12:29:15;;;;;;;8.77;2.17;;;35.50;49.10;;;;;;4999364;28;20485;-73
2021/08/14 12:31:46;;;;;;;3.47;2.40;;;35.90;48.80;;;;;;5004272;28;20559;-70
2021/08/14 12:34:28;;;;;;;2.63;2.07;;;34.70;50.60;;;;;;5004118;28;20981;-70
2021/08/14 12:37:07;;;;;;;6.23;2.37;;;34.50;51.70;;;;;;4997613;28;20998;-70
2021/08/14 12:39:48;;;;;;;3.50;1.63;;;34.40;51.30;;;;;;4994963;28;20477;-74
2021/08/14 12:42:18;;;;;;;4.57;2.03;;;34.10;50.10;;;;;;5003174;28;20556;-71
2021/08/14 12:44:45;;;;;;;4.23;2.00;;;34.50;51.10;;;;;;5007727;28;20485;-72
2021/08/14 12:47:12;;;;;;;7.50;2.50;;;34.90;51.90;;;;;;5002275;28;20501;-71
2021/08/14 12:49:40;;;;;;;3.47;2.50;;;35.40;50.60;;;;;;5003229;28;20467;-70
2021/08/14 12:52:08;;;;;;;7.30;2.60;;;35.90;49.60;;;;;;5004662;28;20485;-70
2021/08/14 12:54:37;;;;;;;5.17;3.00;;;36.10;50.00;;;;;;4998344;28;20871;-71